Harpers Ferry, West Virginia
Current Conditions -  °F | °C
As of 1:53 PM on Friday 24 Oct 2014 (Local Time) from KMRB Reporting Station
Clear Clear  
Wind Chill: 65°   Ceiling: Unl
Heat Index: 65°   Visibility: 10mi
Dew Point: 34°   Wind: 14mph
Humidity: 32%   Direction: 330°NNW
Pressure: 29.95"   Gusts: NA
Location:  39.33°N, 77.74°W
Report Text: KMRB 241753Z 33012KT 10SM CLR 18/01 A2995 RMK AO2 SLP142 T01830011 10189 20106 58024
Loading
Personal Weather Stations






























Interactive Weather Map
Tropical Storm Tracking
New forecast layout! Learn more

10-Day Weather Forecast

Advertisements
Track Severe Weather on mobile